createdAt,value
2023-04-28T00:00:52.833Z,0.00
2023-04-28T00:01:52.872Z,0.00
2023-04-28T00:02:53.078Z,0.00
2023-04-28T00:03:53.102Z,0.00
2023-04-28T00:04:53.319Z,0.00
2023-04-28T00:05:53.097Z,0.00
2023-04-28T00:06:53.022Z,5.29
2023-04-28T00:07:53.084Z,21.41
2023-04-28T00:08:53.122Z,25.25
2023-04-28T00:09:53.126Z,26.60
2023-04-28T00:10:53.136Z,25.00
2023-04-28T00:11:53.140Z,25.50
2023-04-28T00:12:53.171Z,25.00
2023-04-28T00:13:53.198Z,25.00
2023-04-28T00:14:53.251Z,25.88
2023-04-28T00:15:53.338Z,27.09
2023-04-28T00:16:53.394Z,28.33
2023-04-28T00:17:53.439Z,25.00
2023-04-28T00:18:53.368Z,27.92
2023-04-28T00:19:53.349Z,30.04
2023-04-28T00:20:53.339Z,25.00
2023-04-28T00:21:53.331Z,28.59
2023-04-28T00:22:53.319Z,28.40
2023-04-28T00:23:53.325Z,27.56
2023-04-28T00:24:53.323Z,30.18
2023-04-28T00:25:53.335Z,26.37
2023-04-28T00:26:53.397Z,25.00
2023-04-28T00:27:53.318Z,28.57
2023-04-28T00:28:53.291Z,25.90
2023-04-28T00:29:53.294Z,27.83
2023-04-28T00:30:53.294Z,25.00
2023-04-28T00:31:53.353Z,27.11
2023-04-28T00:32:53.473Z,25.32
2023-04-28T00:33:53.315Z,26.80
2023-04-28T00:34:53.338Z,25.50
2023-04-28T00:35:53.292Z,25.58
2023-04-28T00:36:53.296Z,30.04
2023-04-28T00:37:53.286Z,26.01
2023-04-28T00:38:53.260Z,26.96
2023-04-28T00:39:53.250Z,25.62
2023-04-28T00:40:53.236Z,26.54
2023-04-28T00:41:53.221Z,27.14
2023-04-28T00:42:53.263Z,26.81
2023-04-28T00:43:53.220Z,28.09
2023-04-28T00:44:53.215Z,27.31
2023-04-28T00:45:53.227Z,27.92
2023-04-28T00:46:53.224Z,28.33
2023-04-28T00:47:53.293Z,28.38
2023-04-28T00:48:53.212Z,27.83
2023-04-28T00:49:53.202Z,27.12
2023-04-28T00:50:53.200Z,27.38
2023-04-28T00:51:53.219Z,25.34
2023-04-28T00:52:53.197Z,25.77
2023-04-28T00:53:53.176Z,30.43
2023-04-28T00:54:53.189Z,29.87
2023-04-28T00:55:53.161Z,31.89
2023-04-28T00:56:53.182Z,27.91
2023-04-28T00:57:53.180Z,27.88
2023-04-28T00:58:53.173Z,24.87
2023-04-28T00:59:53.152Z,25.00
2023-04-28T01:00:53.173Z,31.33
2023-04-28T01:01:53.144Z,27.70
2023-04-28T01:02:53.257Z,27.91
2023-04-28T01:03:53.310Z,26.16
2023-04-28T01:04:53.122Z,29.26
2023-04-28T01:05:53.127Z,26.81
2023-04-28T01:06:53.145Z,28.11
2023-04-28T01:07:53.182Z,28.34
2023-04-28T01:08:53.203Z,26.90
2023-04-28T01:09:53.240Z,28.29
2023-04-28T01:10:53.263Z,28.93
2023-04-28T01:11:53.326Z,29.52
2023-04-28T01:12:53.368Z,29.50
2023-04-28T01:13:53.409Z,30.49
2023-04-28T01:14:53.468Z,28.62
2023-04-28T01:15:53.462Z,30.01
2023-04-28T01:16:53.560Z,27.94
2023-04-28T01:17:53.495Z,27.62
2023-04-28T01:18:53.447Z,30.02
2023-04-28T01:19:53.421Z,25.29
2023-04-28T01:20:53.425Z,28.50
2023-04-28T01:21:53.442Z,25.08
2023-04-28T01:22:53.425Z,30.23
2023-04-28T01:23:53.436Z,29.16
2023-04-28T01:24:53.469Z,26.83
2023-04-28T01:25:53.414Z,27.57
2023-04-28T01:26:53.425Z,28.22
2023-04-28T01:27:53.427Z,27.81
2023-04-28T01:28:53.428Z,25.00
2023-04-28T01:29:53.428Z,31.44
2023-04-28T01:30:53.478Z,26.35
2023-04-28T01:31:53.544Z,28.50
2023-04-28T01:32:53.479Z,26.70
2023-04-28T01:33:53.482Z,28.29
2023-04-28T01:34:53.511Z,30.09
2023-04-28T01:35:53.491Z,28.95
2023-04-28T01:36:53.494Z,28.76
2023-04-28T01:37:53.532Z,31.52
2023-04-28T01:38:53.564Z,32.00
2023-04-28T01:39:53.554Z,27.64
2023-04-28T01:40:53.563Z,28.34
2023-04-28T01:41:53.572Z,28.09
2023-04-28T01:42:53.574Z,29.56
2023-04-28T01:43:53.590Z,27.51
2023-04-28T01:44:53.593Z,29.05
2023-04-28T01:45:53.647Z,28.76
2023-04-28T01:46:53.679Z,29.75
2023-04-28T01:47:53.643Z,29.04
2023-04-28T01:48:53.669Z,28.62
2023-04-28T01:49:53.674Z,29.66
2023-04-28T01:50:53.653Z,29.65
2023-04-28T01:51:53.648Z,28.31
2023-04-28T01:52:53.642Z,29.53
2023-04-28T01:53:53.634Z,29.30
2023-04-28T01:54:53.648Z,29.61
2023-04-28T01:55:53.644Z,28.40
2023-04-28T01:56:53.645Z,26.86
2023-04-28T01:57:53.688Z,25.33
2023-04-28T01:58:53.675Z,25.79
2023-04-28T01:59:53.690Z,27.21
2023-04-28T02:00:53.681Z,25.04
2023-04-28T02:01:53.776Z,27.21
2023-04-28T02:02:53.886Z,28.46
2023-04-28T02:03:53.887Z,28.26
2023-04-28T02:04:53.836Z,29.50
2023-04-28T02:05:53.682Z,28.71
2023-04-28T02:06:53.666Z,27.51
2023-04-28T02:07:53.677Z,29.38
2023-04-28T02:08:53.649Z,29.03
2023-04-28T02:09:53.631Z,28.62
2023-04-28T02:10:53.617Z,29.77
2023-04-28T02:11:53.613Z,30.85
2023-04-28T02:12:53.592Z,31.23
2023-04-28T02:13:53.636Z,29.58
2023-04-28T02:14:53.656Z,30.88
2023-04-28T02:15:53.687Z,27.78
2023-04-28T02:16:53.656Z,29.15
2023-04-28T02:17:53.776Z,26.30
2023-04-28T02:18:53.715Z,28.46
2023-04-28T02:19:53.698Z,27.93
2023-04-28T02:20:53.686Z,29.29
2023-04-28T02:21:53.705Z,29.55
2023-04-28T02:22:53.653Z,27.09
2023-04-28T02:23:53.641Z,25.87
2023-04-28T02:24:53.647Z,25.00
2023-04-28T02:25:53.652Z,27.74
2023-04-28T02:26:53.660Z,27.61
2023-04-28T02:27:53.665Z,27.13
2023-04-28T02:28:53.684Z,29.48
2023-04-28T02:29:53.686Z,28.22
2023-04-28T02:30:53.664Z,27.50
2023-04-28T02:31:53.772Z,26.22
2023-04-28T02:32:53.659Z,28.82
2023-04-28T02:33:53.629Z,30.80
2023-04-28T02:34:53.667Z,29.22
2023-04-28T02:35:53.655Z,29.56
2023-04-28T02:36:53.649Z,30.09
2023-04-28T02:37:53.663Z,27.09
2023-04-28T02:38:53.704Z,30.38
2023-04-28T02:39:53.717Z,31.72
2023-04-28T02:40:53.733Z,26.62
2023-04-28T02:41:53.769Z,25.97
2023-04-28T02:42:53.784Z,27.52
2023-04-28T02:43:53.834Z,27.53
2023-04-28T02:44:53.831Z,29.00
2023-04-28T02:45:53.836Z,30.45
2023-04-28T02:46:53.916Z,31.25
2023-04-28T02:47:53.892Z,31.74
2023-04-28T02:48:53.823Z,27.19
2023-04-28T02:49:53.885Z,32.51
2023-04-28T02:50:53.926Z,28.54
2023-04-28T02:51:53.886Z,25.35
2023-04-28T02:52:53.902Z,31.16
2023-04-28T02:53:53.900Z,28.27
2023-04-28T02:54:53.937Z,33.83
2023-04-28T02:55:53.896Z,29.27
2023-04-28T02:56:53.931Z,29.15
2023-04-28T02:57:53.908Z,28.90
2023-04-28T02:58:53.930Z,32.81
2023-04-28T02:59:53.984Z,28.01
2023-04-28T03:00:54.046Z,29.17
2023-04-28T03:01:53.969Z,31.52
2023-04-28T03:02:54.113Z,31.97
2023-04-28T03:03:54.133Z,31.84
2023-04-28T03:04:54.023Z,27.79
2023-04-28T03:05:54.108Z,28.81
2023-04-28T03:06:54.209Z,30.70
2023-04-28T03:07:53.976Z,26.13
2023-04-28T03:08:53.957Z,29.66
2023-04-28T03:09:53.968Z,33.45
2023-04-28T03:10:53.976Z,29.06
2023-04-28T03:11:53.957Z,32.19
2023-04-28T03:12:53.923Z,30.26
2023-04-28T03:13:53.897Z,27.99
2023-04-28T03:14:53.885Z,30.67
2023-04-28T03:15:53.944Z,35.17
2023-04-28T03:16:53.988Z,30.52
2023-04-28T03:17:53.961Z,32.55
2023-04-28T03:18:53.897Z,28.94
2023-04-28T03:19:53.900Z,33.72
2023-04-28T03:20:53.922Z,31.43
2023-04-28T03:21:53.976Z,27.76
2023-04-28T03:22:53.987Z,28.83
2023-04-28T03:23:53.942Z,28.57
2023-04-28T03:24:53.936Z,30.30
2023-04-28T03:25:53.921Z,27.80
2023-04-28T03:26:53.927Z,33.18
2023-04-28T03:27:53.922Z,29.60
2023-04-28T03:28:53.919Z,33.50
2023-04-28T03:29:53.927Z,31.87
2023-04-28T03:30:53.926Z,28.31
2023-04-28T03:31:53.978Z,27.81
2023-04-28T03:32:53.928Z,32.15
2023-04-28T03:33:53.907Z,28.43
2023-04-28T03:34:53.891Z,30.49
2023-04-28T03:35:53.919Z,29.03
2023-04-28T03:36:53.928Z,30.48
2023-04-28T03:37:53.916Z,25.11
2023-04-28T03:38:53.939Z,30.04
2023-04-28T03:39:53.932Z,31.68
2023-04-28T03:40:53.954Z,28.07
2023-04-28T03:41:53.925Z,27.32
2023-04-28T03:42:53.924Z,28.36
2023-04-28T03:43:53.947Z,27.15
2023-04-28T03:44:53.945Z,28.29
2023-04-28T03:45:54.036Z,29.20
2023-04-28T03:46:53.952Z,27.70
2023-04-28T03:47:54.036Z,28.56
2023-04-28T03:48:53.943Z,29.49
2023-04-28T03:49:53.943Z,27.62
2023-04-28T03:50:53.946Z,29.51
2023-04-28T03:51:53.969Z,31.41
2023-04-28T03:52:53.954Z,28.50
2023-04-28T03:53:53.959Z,29.41
2023-04-28T03:54:53.994Z,29.57
2023-04-28T03:55:53.998Z,28.77
2023-04-28T03:56:53.973Z,26.05
2023-04-28T03:57:53.961Z,28.85
2023-04-28T03:58:53.962Z,29.85
2023-04-28T03:59:53.959Z,26.14
2023-04-28T04:00:53.956Z,29.76
2023-04-28T04:01:54.001Z,26.90
2023-04-28T04:02:54.196Z,30.30
2023-04-28T04:03:54.360Z,27.62
2023-04-28T04:04:54.292Z,28.86
2023-04-28T04:05:54.071Z,26.65
2023-04-28T04:06:53.967Z,31.39
2023-04-28T04:07:54.002Z,28.67
2023-04-28T04:08:54.000Z,27.48
2023-04-28T04:09:54.017Z,28.71
2023-04-28T04:10:54.050Z,31.69
2023-04-28T04:11:54.028Z,25.87
2023-04-28T04:12:54.019Z,27.63
2023-04-28T04:13:54.013Z,29.21
2023-04-28T04:14:54.015Z,25.91
2023-04-28T04:15:54.068Z,29.82
2023-04-28T04:16:54.062Z,33.35
2023-04-28T04:17:54.128Z,25.06
2023-04-28T04:18:54.034Z,27.96
2023-04-28T04:19:54.057Z,29.56
2023-04-28T04:20:54.052Z,28.58
2023-04-28T04:21:54.084Z,29.68
2023-04-28T04:22:54.066Z,29.93
2023-04-28T04:23:54.074Z,29.54
2023-04-28T04:24:54.134Z,28.84
2023-04-28T04:25:54.092Z,28.27
2023-04-28T04:26:54.160Z,28.65
2023-04-28T04:27:54.128Z,28.89
2023-04-28T04:28:54.158Z,31.00
2023-04-28T04:29:54.186Z,31.04
2023-04-28T04:30:54.195Z,30.84
2023-04-28T04:31:54.140Z,27.82
2023-04-28T04:32:54.290Z,28.99
2023-04-28T04:33:54.177Z,29.97
2023-04-28T04:34:54.176Z,26.35
2023-04-28T04:35:54.164Z,25.89
2023-04-28T04:36:54.195Z,26.96
2023-04-28T04:37:54.167Z,26.68
2023-04-28T04:38:54.780Z,28.22
2023-04-28T04:39:54.143Z,32.11
2023-04-28T04:40:54.219Z,27.87
2023-04-28T04:41:54.109Z,27.95
2023-04-28T04:42:54.174Z,28.60
2023-04-28T04:43:54.168Z,27.78
2023-04-28T04:44:54.158Z,29.77
2023-04-28T04:45:54.188Z,30.34
2023-04-28T04:46:54.274Z,27.26
2023-04-28T04:47:54.231Z,30.53
2023-04-28T04:48:54.158Z,29.59
2023-04-28T04:49:54.167Z,27.45
2023-04-28T04:50:54.162Z,29.28
2023-04-28T04:51:54.133Z,30.72
2023-04-28T04:52:54.122Z,32.32
2023-04-28T04:53:54.151Z,33.78
2023-04-28T04:54:54.128Z,32.96
2023-04-28T04:55:54.133Z,31.72
2023-04-28T04:56:54.174Z,30.23
2023-04-28T04:57:54.924Z,30.70
2023-04-28T04:58:54.288Z,30.94
2023-04-28T04:59:54.173Z,32.52
2023-04-28T05:00:54.165Z,33.50
2023-04-28T05:01:54.199Z,32.10
2023-04-28T05:02:54.293Z,32.04
2023-04-28T05:03:54.226Z,32.10
2023-04-28T05:04:59.423Z,30.09
2023-04-28T05:05:54.192Z,30.54
2023-04-28T05:06:54.163Z,30.77
2023-04-28T05:07:54.151Z,31.11
2023-04-28T05:08:54.147Z,31.48
2023-04-28T05:09:54.136Z,30.37
2023-04-28T05:10:54.116Z,32.96
2023-04-28T05:11:54.111Z,31.35
2023-04-28T05:12:54.514Z,32.52
2023-04-28T05:13:54.128Z,34.33
2023-04-28T05:14:54.103Z,28.15
2023-04-28T05:15:54.065Z,29.30
2023-04-28T05:16:54.875Z,32.23
2023-04-28T05:17:54.081Z,28.38
2023-04-28T05:18:54.043Z,28.85
2023-04-28T05:19:53.987Z,25.00
2023-04-28T05:20:53.970Z,30.14
2023-04-28T05:21:54.017Z,27.65
2023-04-28T05:22:53.946Z,28.88
2023-04-28T05:23:54.048Z,29.33
2023-04-28T05:24:53.920Z,31.11
2023-04-28T05:25:53.897Z,31.17
2023-04-28T05:26:53.872Z,29.34
2023-04-28T05:27:54.075Z,29.50
2023-04-28T05:28:53.889Z,29.47
2023-04-28T05:29:53.829Z,27.36
2023-04-28T05:30:53.830Z,26.44
2023-04-28T05:31:53.839Z,27.55
2023-04-28T05:32:53.786Z,30.82
2023-04-28T05:33:53.779Z,29.23
2023-04-28T05:34:53.779Z,28.79
2023-04-28T05:35:53.761Z,29.36
2023-04-28T05:36:53.733Z,27.77
2023-04-28T05:37:53.728Z,31.59
2023-04-28T05:38:54.123Z,31.51
2023-04-28T05:39:53.711Z,29.81
2023-04-28T05:40:53.688Z,33.34
2023-04-28T05:41:54.032Z,33.27
2023-04-28T05:42:54.058Z,34.78
2023-04-28T05:43:54.245Z,29.91
2023-04-28T05:44:54.070Z,33.96
2023-04-28T05:45:54.829Z,43.21
2023-04-28T05:46:54.247Z,42.96
2023-04-28T05:47:53.902Z,38.13
2023-04-28T05:48:53.870Z,40.75
2023-04-28T05:49:54.906Z,41.13
2023-04-28T05:50:54.050Z,48.48
2023-04-28T05:51:54.038Z,56.97
2023-04-28T05:52:54.084Z,58.81
2023-04-28T05:53:54.116Z,57.66
2023-04-28T05:54:54.779Z,63.29
2023-04-28T05:55:54.555Z,70.64
2023-04-28T05:56:54.260Z,69.42
2023-04-28T05:57:54.549Z,76.06
2023-04-28T05:58:54.433Z,85.40
2023-04-28T05:59:54.548Z,94.76
2023-04-28T06:00:54.456Z,98.63
2023-04-28T06:02:54.635Z,104.55
2023-04-28T06:03:54.714Z,108.11
2023-04-28T06:04:54.701Z,112.17
2023-04-28T06:05:54.457Z,92.01
2023-04-28T06:06:54.548Z,86.49
2023-04-28T06:07:55.202Z,99.17
2023-04-28T06:08:54.412Z,105.55
2023-04-28T06:09:54.413Z,113.35
2023-04-28T06:10:54.440Z,109.24
2023-04-28T06:11:54.568Z,110.98
2023-04-28T06:12:54.392Z,116.21
2023-04-28T06:13:54.385Z,109.11
2023-04-28T06:14:54.364Z,108.26
2023-04-28T06:15:54.425Z,106.66
2023-04-28T06:16:54.400Z,106.74
2023-04-28T06:17:54.462Z,100.89
2023-04-28T06:18:54.396Z,108.24
2023-04-28T06:19:54.365Z,90.14
2023-04-28T06:20:54.364Z,90.05
2023-04-28T06:21:54.592Z,85.67
2023-04-28T06:22:54.553Z,84.80
2023-04-28T06:23:54.360Z,82.97
2023-04-28T06:24:54.347Z,80.27
2023-04-28T06:25:54.335Z,84.64
2023-04-28T06:26:54.559Z,87.03
2023-04-28T06:27:57.739Z,85.49
2023-04-28T06:28:54.285Z,85.75
2023-04-28T06:29:54.284Z,87.90
2023-04-28T06:30:54.312Z,91.86
2023-04-28T06:31:54.564Z,100.00
2023-04-28T06:32:54.300Z,113.94
2023-04-28T06:33:54.231Z,113.96
2023-04-28T06:34:54.578Z,119.04
2023-04-28T06:35:54.222Z,121.18
2023-04-28T06:36:54.219Z,125.56
2023-04-28T06:37:54.231Z,124.73
2023-04-28T06:38:54.227Z,127.34
2023-04-28T06:39:54.188Z,131.94
2023-04-28T06:40:57.394Z,133.69
2023-04-28T06:41:54.680Z,134.15
2023-04-28T06:42:54.175Z,136.13
2023-04-28T06:43:54.211Z,139.92
2023-04-28T06:44:55.163Z,145.61
2023-04-28T06:45:54.168Z,157.20
2023-04-28T06:46:54.636Z,167.55
2023-04-28T06:47:54.588Z,173.96
2023-04-28T06:48:54.145Z,173.67
2023-04-28T06:49:54.140Z,182.00
2023-04-28T06:50:54.145Z,182.04
2023-04-28T06:51:54.113Z,188.92
2023-04-28T06:52:54.568Z,190.22
2023-04-28T06:53:54.081Z,191.84
2023-04-28T06:54:54.082Z,197.03
2023-04-28T06:55:54.116Z,198.47
2023-04-28T06:56:54.140Z,184.59
2023-04-28T06:57:54.758Z,193.52
2023-04-28T06:58:54.773Z,202.24
2023-04-28T06:59:54.257Z,207.70
2023-04-28T07:00:54.336Z,207.52
2023-04-28T07:01:54.364Z,207.08
2023-04-28T07:02:54.750Z,214.13
2023-04-28T07:03:54.491Z,220.91
2023-04-28T07:04:54.434Z,222.46
2023-04-28T07:05:54.499Z,222.83
2023-04-28T07:06:54.500Z,224.26
2023-04-28T07:07:54.574Z,228.17
2023-04-28T07:08:54.528Z,229.16
2023-04-28T07:09:54.558Z,228.79
2023-04-28T07:10:55.081Z,183.92
2023-04-28T07:11:55.189Z,98.49
2023-04-28T07:12:55.103Z,57.62
2023-04-28T07:13:54.716Z,38.17
2023-04-28T07:14:54.771Z,42.48
2023-04-28T07:15:54.829Z,61.53
2023-04-28T07:16:54.918Z,73.58
2023-04-28T07:17:55.125Z,76.56
2023-04-28T07:18:54.949Z,79.46
2023-04-28T07:19:55.097Z,73.79
2023-04-28T07:20:55.111Z,69.66
2023-04-28T07:21:55.155Z,67.16
2023-04-28T07:22:55.621Z,65.09
2023-04-28T07:23:56.225Z,67.57
2023-04-28T07:24:55.610Z,72.64
2023-04-28T07:25:55.454Z,79.35
2023-04-28T07:26:55.589Z,88.30
2023-04-28T07:27:55.600Z,89.52
2023-04-28T07:28:55.545Z,93.11
2023-04-28T07:29:55.581Z,94.91
2023-04-28T07:30:55.606Z,100.03
2023-04-28T07:31:56.635Z,104.57
2023-04-28T07:32:56.314Z,99.18
2023-04-28T07:33:55.624Z,95.85
2023-04-28T07:34:55.627Z,107.04
2023-04-28T07:35:56.081Z,103.83
2023-04-28T07:36:55.627Z,113.03
2023-04-28T07:37:55.642Z,119.94
2023-04-28T07:38:55.785Z,119.08
2023-04-28T07:39:55.656Z,124.11
2023-04-28T07:40:56.091Z,125.21
2023-04-28T07:41:56.131Z,131.92
2023-04-28T07:42:56.106Z,139.28
2023-04-28T07:43:55.738Z,146.18
2023-04-28T07:44:55.760Z,147.84
2023-04-28T07:45:55.866Z,158.62
2023-04-28T07:46:55.875Z,166.34
2023-04-28T07:47:56.140Z,171.94
2023-04-28T07:48:55.969Z,182.11
2023-04-28T07:49:56.118Z,188.85
2023-04-28T07:50:56.066Z,193.00
2023-04-28T07:51:56.761Z,199.57
2023-04-28T07:52:57.022Z,208.65
2023-04-28T07:53:56.181Z,213.33
2023-04-28T07:54:56.265Z,225.10
2023-04-28T07:55:56.253Z,228.04
2023-04-28T07:56:57.660Z,228.77
2023-04-28T07:57:56.303Z,236.78
2023-04-28T07:58:56.333Z,241.84
2023-04-28T07:59:56.367Z,245.53
2023-04-28T08:00:56.379Z,248.44
2023-04-28T08:01:56.664Z,250.00
2023-04-28T08:02:56.560Z,249.28
2023-04-28T08:03:57.548Z,247.44
2023-04-28T08:04:57.046Z,248.19
2023-04-28T08:05:56.638Z,249.71
2023-04-28T08:06:56.625Z,248.14
2023-04-28T08:07:56.535Z,250.41
2023-04-28T08:08:56.533Z,249.09
2023-04-28T08:09:55.505Z,249.36
2023-04-28T08:10:56.547Z,249.71
2023-04-28T08:11:56.601Z,252.01
2023-04-28T08:12:56.551Z,258.00
2023-04-28T08:13:56.440Z,264.17
2023-04-28T08:14:56.413Z,250.00
2023-04-28T08:15:56.458Z,249.50
2023-04-28T08:16:56.435Z,248.76
2023-04-28T08:17:56.454Z,247.61
2023-04-28T08:18:56.347Z,248.57
2023-04-28T08:19:56.324Z,249.84
2023-04-28T08:20:56.305Z,250.00
2023-04-28T08:21:56.620Z,249.57
2023-04-28T08:22:56.336Z,248.09
2023-04-28T08:23:56.276Z,248.88
2023-04-28T08:24:56.277Z,249.70
2023-04-28T08:25:56.226Z,250.00
2023-04-28T08:26:56.655Z,249.82
2023-04-28T08:27:57.467Z,249.92
2023-04-28T08:28:56.200Z,245.73
2023-04-28T08:29:56.168Z,249.23
2023-04-28T08:30:56.621Z,250.00
2023-04-28T08:31:56.129Z,248.05
2023-04-28T08:32:56.624Z,247.38
2023-04-28T08:33:56.079Z,248.97
2023-04-28T08:34:56.595Z,249.12
2023-04-28T08:35:56.091Z,249.67
2023-04-28T08:36:56.107Z,250.00
2023-04-28T08:37:56.107Z,249.06
2023-04-28T08:38:56.105Z,248.54
2023-04-28T08:39:56.589Z,250.64
2023-04-28T08:40:56.138Z,183.75
2023-04-28T08:41:56.163Z,177.09
2023-04-28T08:42:56.708Z,179.48
2023-04-28T08:43:59.483Z,198.93
2023-04-28T08:44:56.256Z,199.35
2023-04-28T08:45:56.253Z,202.63
2023-04-28T08:46:56.281Z,210.61
2023-04-28T08:47:56.645Z,220.63
2023-04-28T08:48:56.224Z,229.00
2023-04-28T08:49:56.186Z,229.50
2023-04-28T08:50:56.177Z,228.05
2023-04-28T08:51:56.206Z,229.87
2023-04-28T08:52:56.714Z,233.87
2023-04-28T08:54:55.184Z,230.58
2023-04-28T08:55:56.188Z,231.75
2023-04-28T08:56:56.140Z,233.05
2023-04-28T08:57:56.219Z,234.43
2023-04-28T08:58:56.107Z,235.64
2023-04-28T08:59:56.062Z,237.99
2023-04-28T09:00:56.030Z,242.62
2023-04-28T09:01:56.069Z,244.72
2023-04-28T09:02:56.100Z,244.39
2023-04-28T09:03:56.172Z,243.66
2023-04-28T09:04:56.327Z,248.70
2023-04-28T09:05:55.909Z,250.00
2023-04-28T09:06:55.944Z,248.53
2023-04-28T09:07:56.291Z,250.00
2023-04-28T09:08:56.003Z,249.22
2023-04-28T09:09:56.202Z,249.68
2023-04-28T09:10:56.002Z,248.07
2023-04-28T09:11:56.048Z,249.72
2023-04-28T09:12:56.443Z,249.46
2023-04-28T09:13:56.241Z,249.59
2023-04-28T09:14:56.158Z,248.90
2023-04-28T09:15:55.835Z,248.76
2023-04-28T09:16:55.876Z,248.47
2023-04-28T09:17:55.822Z,247.18
2023-04-28T09:18:56.267Z,248.67
2023-04-28T09:19:55.777Z,248.76
2023-04-28T09:20:55.722Z,249.82
2023-04-28T09:21:56.075Z,248.72
2023-04-28T09:22:55.929Z,250.00
2023-04-28T09:23:55.766Z,249.63
2023-04-28T09:24:55.941Z,247.30
2023-04-28T09:25:55.643Z,249.14
2023-04-28T09:26:55.899Z,248.86
2023-04-28T09:27:55.781Z,249.06
2023-04-28T09:28:55.715Z,249.97
2023-04-28T09:29:55.550Z,249.17
2023-04-28T09:30:55.399Z,248.52
2023-04-28T09:31:55.355Z,248.26
2023-04-28T09:32:55.665Z,249.44
2023-04-28T09:33:55.290Z,247.84
2023-04-28T09:34:55.260Z,246.99
2023-04-28T09:35:55.229Z,247.46
2023-04-28T09:36:55.238Z,245.74
2023-04-28T09:37:55.612Z,243.10
2023-04-28T09:38:56.489Z,242.06
2023-04-28T09:39:55.179Z,242.57
2023-04-28T09:40:55.152Z,241.78
2023-04-28T09:41:55.152Z,235.08
2023-04-28T09:42:55.084Z,231.91
2023-04-28T09:43:55.079Z,227.53
2023-04-28T09:44:55.069Z,226.15
2023-04-28T09:45:55.057Z,218.52
2023-04-28T09:46:55.183Z,213.75
2023-04-28T09:47:55.194Z,208.01
2023-04-28T09:48:54.990Z,200.46
2023-04-28T09:49:55.134Z,194.82
2023-04-28T09:50:54.992Z,194.88
2023-04-28T09:51:55.348Z,190.52
2023-04-28T09:52:55.296Z,187.73
2023-04-28T09:53:54.952Z,182.92
2023-04-28T09:54:54.933Z,182.92
2023-04-28T09:55:54.930Z,173.74
2023-04-28T09:56:54.934Z,169.02
2023-04-28T09:57:55.128Z,167.32
2023-04-28T09:58:55.148Z,166.09
2023-04-28T09:59:54.913Z,159.06
2023-04-28T10:00:54.934Z,159.43
2023-04-28T10:01:54.935Z,154.42
2023-04-28T10:02:55.092Z,154.65
2023-04-28T10:03:55.270Z,151.77
2023-04-28T10:04:55.009Z,150.56
2023-04-28T10:05:54.842Z,147.78
2023-04-28T10:06:54.812Z,146.36
2023-04-28T10:07:54.793Z,143.82
2023-04-28T10:08:55.131Z,143.26
2023-04-28T10:09:54.964Z,138.88
2023-04-28T10:10:55.022Z,136.03
2023-04-28T10:11:54.971Z,134.66
2023-04-28T10:12:55.016Z,133.66
2023-04-28T10:13:55.066Z,130.30
2023-04-28T10:14:55.121Z,129.11
2023-04-28T10:15:56.050Z,126.33
2023-04-28T10:16:55.222Z,121.73
2023-04-28T10:17:55.411Z,122.79
2023-04-28T10:18:55.669Z,121.28
2023-04-28T10:19:55.381Z,117.63
2023-04-28T10:20:55.449Z,116.06
2023-04-28T10:21:55.494Z,112.84
2023-04-28T10:22:56.194Z,100.29
2023-04-28T10:23:55.648Z,95.30
2023-04-28T10:24:55.666Z,108.95
2023-04-28T10:25:55.696Z,87.68
2023-04-28T10:26:55.831Z,104.43
2023-04-28T10:27:56.138Z,96.84
2023-04-28T10:28:56.181Z,88.67
2023-04-28T10:29:55.932Z,59.76
2023-04-28T10:30:56.141Z,65.19
2023-04-28T10:31:55.988Z,63.41
2023-04-28T10:32:56.086Z,102.49
2023-04-28T10:33:56.154Z,106.86
2023-04-28T10:34:56.056Z,98.85
2023-04-28T10:35:56.033Z,113.70
2023-04-28T10:36:56.026Z,102.51
2023-04-28T10:37:56.143Z,95.41
2023-04-28T10:38:56.023Z,94.96
2023-04-28T10:39:56.012Z,98.36
2023-04-28T10:40:56.653Z,102.58
2023-04-28T10:41:56.029Z,95.35
2023-04-28T10:42:56.048Z,98.69
2023-04-28T10:43:56.039Z,99.70
2023-04-28T10:44:56.054Z,99.21
2023-04-28T10:45:57.903Z,101.02
2023-04-28T10:46:56.203Z,103.92
2023-04-28T10:47:56.133Z,108.54
2023-04-28T10:48:56.653Z,104.18
2023-04-28T10:49:56.111Z,89.31
2023-04-28T10:50:56.120Z,89.23
2023-04-28T10:51:56.062Z,93.43
2023-04-28T10:52:56.118Z,94.70
2023-04-28T10:53:56.153Z,88.82
2023-04-28T10:54:56.055Z,87.05
2023-04-28T10:55:56.153Z,82.47
2023-04-28T10:56:56.039Z,70.33
2023-04-28T10:57:56.208Z,70.27
2023-04-28T10:58:56.383Z,70.85
2023-04-28T10:59:56.019Z,73.16
2023-04-28T11:00:56.013Z,73.54
2023-04-28T11:01:56.121Z,75.04
2023-04-28T11:02:56.070Z,80.41
2023-04-28T11:03:56.320Z,81.38
2023-04-28T11:04:56.056Z,87.15
2023-04-28T11:05:55.971Z,94.38
2023-04-28T11:06:56.315Z,98.44
2023-04-28T11:07:57.363Z,103.42
2023-04-28T11:08:56.177Z,103.61
2023-04-28T11:09:56.158Z,104.25
2023-04-28T11:10:56.138Z,106.57
2023-04-28T11:11:56.178Z,112.08
2023-04-28T11:12:55.886Z,115.65
2023-04-28T11:13:55.916Z,117.09
2023-04-28T11:14:55.871Z,121.06
2023-04-28T11:15:55.877Z,125.02
2023-04-28T11:16:56.213Z,130.84
2023-04-28T11:17:55.879Z,131.54
2023-04-28T11:18:56.152Z,136.17
2023-04-28T11:19:56.158Z,138.48
2023-04-28T11:20:55.766Z,142.53
2023-04-28T11:21:55.759Z,144.39
2023-04-28T11:22:55.736Z,150.64
2023-04-28T11:23:56.156Z,153.41
2023-04-28T11:24:55.703Z,157.26
2023-04-28T11:25:55.716Z,159.02
2023-04-28T11:26:55.715Z,162.50
2023-04-28T11:27:55.731Z,166.34
2023-04-28T11:28:55.744Z,169.09
2023-04-28T11:29:55.912Z,171.05
2023-04-28T11:30:56.181Z,174.69
2023-04-28T11:31:55.828Z,177.13
2023-04-28T11:32:55.851Z,180.39
2023-04-28T11:33:56.374Z,180.95
2023-04-28T11:34:55.825Z,183.53
2023-04-28T11:35:55.816Z,185.54
2023-04-28T11:36:56.160Z,189.02
2023-04-28T11:37:55.826Z,194.34
2023-04-28T11:38:56.197Z,192.58
2023-04-28T11:39:55.838Z,197.53
2023-04-28T11:40:55.846Z,200.39
2023-04-28T11:41:55.859Z,203.27
2023-04-28T11:42:58.105Z,205.00
2023-04-28T11:43:55.825Z,210.89
2023-04-28T11:44:58.989Z,211.53
2023-04-28T11:45:55.859Z,211.81
2023-04-28T11:46:55.766Z,212.49
2023-04-28T11:47:55.767Z,213.80
2023-04-28T11:48:55.723Z,216.92
2023-04-28T11:49:55.717Z,223.19
2023-04-28T11:50:55.775Z,224.78
2023-04-28T11:51:55.852Z,227.83
2023-04-28T11:52:55.754Z,231.17
2023-04-28T11:53:55.602Z,233.47
2023-04-28T11:54:55.665Z,233.92
2023-04-28T11:55:55.711Z,236.98
2023-04-28T11:56:55.541Z,238.46
2023-04-28T11:57:55.508Z,239.18
2023-04-28T11:58:55.686Z,240.34
2023-04-28T11:59:55.446Z,243.39
2023-04-28T12:00:55.434Z,248.77
2023-04-28T12:01:55.399Z,248.25
2023-04-28T12:02:55.471Z,250.00
2023-04-28T12:03:55.564Z,248.58
2023-04-28T12:04:55.314Z,248.93
2023-04-28T12:05:55.345Z,247.55
2023-04-28T12:06:55.269Z,248.14
2023-04-28T12:07:55.246Z,249.79
2023-04-28T12:08:55.683Z,248.97
2023-04-28T12:09:55.191Z,249.07
2023-04-28T12:10:55.288Z,247.30
2023-04-28T12:11:55.140Z,248.31
2023-04-28T12:12:55.168Z,248.79
2023-04-28T12:13:55.087Z,247.77
2023-04-28T12:14:55.048Z,249.34
2023-04-28T12:15:55.041Z,249.10
2023-04-28T12:16:54.996Z,249.66
2023-04-28T12:17:55.159Z,247.54
2023-04-28T12:18:54.974Z,248.32
2023-04-28T12:19:54.982Z,249.10
2023-04-28T12:20:54.940Z,248.65
2023-04-28T12:21:54.922Z,249.43
2023-04-28T12:22:54.917Z,250.00
2023-04-28T12:23:55.189Z,247.83
2023-04-28T12:24:54.843Z,246.94
2023-04-28T12:25:54.823Z,244.13
2023-04-28T12:26:54.885Z,244.17
2023-04-28T12:27:54.792Z,240.80
2023-04-28T12:28:54.763Z,237.63
2023-04-28T12:29:55.187Z,233.87
2023-04-28T12:30:54.721Z,227.11
2023-04-28T12:31:54.707Z,224.76
2023-04-28T12:32:54.699Z,218.01
2023-04-28T12:33:54.691Z,216.95
2023-04-28T12:34:54.640Z,202.66
2023-04-28T12:35:54.638Z,150.55
2023-04-28T12:36:54.632Z,122.70
2023-04-28T12:37:54.681Z,113.42
2023-04-28T12:38:54.702Z,107.97
2023-04-28T12:39:55.194Z,108.55
2023-04-28T12:40:54.777Z,116.04
2023-04-28T12:41:54.804Z,118.89
2023-04-28T12:42:54.870Z,122.51
2023-04-28T12:43:55.194Z,124.79
2023-04-28T12:44:54.847Z,128.93